Time;durP1;ratioP1;P1;durP2;ratioP2;P2;SDS_P1;SDS_P2;PMS_P1;PMS_P2;Temp;Humidity;BMP_temperature;BMP_pressure;BME280_temperature;BME280_humidity;BME280_pressure;Samples;Min_cycle;Max_cycle;Signal;HPM_P1;HPM_P2
2021/07/24 00:01:30;;;;;;;7.10;3.92;;;15.70;93.50;;;;;;5925167;39;20426;-70
2021/07/24 00:05:33;;;;;;;;;;;15.50;93.80;;;;;;5933611;39;20066;-70
2021/07/24 00:09:35;;;;;;;9.77;4.97;;;15.50;96.00;;;;;;5936931;39;19972;-71
2021/07/24 00:13:38;;;;;;;7.38;5.03;;;15.50;94.00;;;;;;5929485;39;20036;-70
2021/07/24 00:17:40;;;;;;;8.60;4.82;;;15.40;93.60;;;;;;5926630;39;20332;-69
2021/07/24 00:21:42;;;;;;;6.93;4.93;;;15.40;93.50;;;;;;5926824;39;20319;-69
2021/07/24 00:25:44;;;;;;;7.13;4.80;;;15.40;93.40;;;;;;5927727;39;20041;-70
2021/07/24 00:29:46;;;;;;;9.55;5.65;;;15.40;93.40;;;;;;5926032;39;20044;-70
2021/07/24 00:33:48;;;;;;;;;;;15.40;93.50;;;;;;5927465;39;20063;-69
2021/07/24 00:37:51;;;;;;;9.82;5.90;;;15.40;94.30;;;;;;5925959;39;19964;-70
2021/07/24 00:42:15;;;;;;;10.57;5.55;;;15.30;93.40;;;;;;5924465;39;20048;-70
2021/07/24 00:46:20;;;;;;;9.43;4.68;;;15.20;93.70;;;;;;5930270;39;20060;-70
2021/07/24 00:50:24;;;;;;;9.10;5.32;;;15.20;93.70;;;;;;5930290;39;20098;-70
2021/07/24 00:54:28;;;;;;;10.30;5.45;;;15.20;93.60;;;;;;5929169;39;20048;-70
2021/07/24 00:58:32;;;;;;;7.65;4.45;;;15.20;93.70;;;;;;5937081;39;20070;-70
2021/07/24 01:02:34;;;;;;;7.55;4.65;;;15.10;93.90;;;;;;5938192;39;20502;-70
2021/07/24 01:06:37;;;;;;;6.40;4.65;;;15.00;94.00;;;;;;5928183;39;20129;-69
2021/07/24 01:10:40;;;;;;;11.57;4.82;;;14.90;94.00;;;;;;5930952;39;20059;-70
2021/07/24 01:14:43;;;;;;;9.23;4.82;;;14.80;93.90;;;;;;5925784;39;20044;-70
2021/07/24 01:18:45;;;;;;;;;;;14.80;94.00;;;;;;5932092;39;20044;-70
2021/07/24 01:22:55;;;;;;;8.27;4.78;;;14.90;94.60;;;;;;5943315;39;20209;-70
2021/07/24 01:26:59;;;;;;;7.00;4.38;;;14.90;93.80;;;;;;5942183;39;20309;-72
2021/07/24 01:31:06;;;;;;;8.50;4.30;;;14.90;93.70;;;;;;5940311;39;20044;-72
2021/07/24 01:35:11;;;;;;;6.80;4.28;;;14.90;93.70;;;;;;5921399;39;20043;-71
2021/07/24 01:39:15;;;;;;;8.27;5.32;;;14.90;93.80;;;;;;5935558;39;20150;-71
2021/07/24 01:43:19;;;;;;;7.97;5.05;;;14.90;93.80;;;;;;5934459;39;20054;-71
2021/07/24 01:47:21;;;;;;;;;;;14.90;93.80;;;;;;5933412;39;20060;-72
2021/07/24 01:56:18;;;;;;;11.07;5.20;;;14.90;94.10;;;;;;5940997;39;20047;-71
2021/07/24 02:00:20;;;;;;;8.32;4.78;;;14.90;93.80;;;;;;5947912;39;20044;-71
2021/07/24 02:04:50;;;;;;;10.85;5.82;;;14.90;93.70;;;;;;5940872;39;20367;-71
2021/07/24 02:08:54;;;;;;;9.35;5.38;;;14.80;93.90;;;;;;5942655;39;20406;-71
2021/07/24 02:12:58;;;;;;;7.82;5.35;;;14.80;93.90;;;;;;5939444;39;20056;-71
2021/07/24 02:17:02;;;;;;;8.93;5.32;;;14.80;93.90;;;;;;5939571;39;20064;-71
2021/07/24 02:21:13;;;;;;;7.28;5.07;;;14.80;94.00;;;;;;5925457;39;20047;-71
2021/07/24 02:25:17;;;;;;;8.63;5.53;;;15.20;93.70;;;;;;5944472;39;20068;-71
2021/07/24 02:29:19;;;;;;;8.93;5.18;;;14.80;93.80;;;;;;5924624;39;20052;-72
2021/07/24 02:33:21;;;;;;;9.32;5.30;;;14.70;93.80;;;;;;5933604;39;20114;-72
2021/07/24 02:37:23;;;;;;;7.30;5.32;;;14.70;93.80;;;;;;5937353;39;20048;-72
2021/07/24 02:41:26;;;;;;;8.98;5.28;;;14.70;93.60;;;;;;5937837;39;20056;-72
2021/07/24 02:45:29;;;;;;;6.63;4.82;;;14.60;93.60;;;;;;5923115;39;20045;-72
2021/07/24 02:49:31;;;;;;;8.05;5.07;;;14.60;93.60;;;;;;5936234;39;20045;-72
2021/07/24 02:53:36;;;;;;;8.18;5.88;;;14.50;93.70;;;;;;5930529;39;20324;-72
2021/07/24 02:57:40;;;;;;;8.88;5.03;;;14.50;93.80;;;;;;5921400;39;20080;-71
2021/07/24 03:01:42;;;;;;;8.48;4.60;;;14.50;93.80;;;;;;5929344;39;20032;-72
2021/07/24 03:05:44;;;;;;;8.68;5.22;;;14.40;93.90;;;;;;5929067;39;20410;-71
2021/07/24 03:09:46;;;;;;;8.82;4.78;;;14.40;93.80;;;;;;5923394;39;20052;-71
2021/07/24 03:13:48;;;;;;;7.07;4.85;;;14.50;93.80;;;;;;5919616;39;21983;-71
2021/07/24 03:17:50;;;;;;;;;;;14.50;93.70;;;;;;5936569;39;20103;-71
2021/07/24 03:21:52;;;;;;;7.80;5.10;;;14.40;93.10;;;;;;5926669;39;20072;-72
2021/07/24 03:25:54;;;;;;;7.60;4.80;;;14.40;93.30;;;;;;5927745;39;20064;-71
2021/07/24 03:29:56;;;;;;;7.03;4.90;;;14.40;93.60;;;;;;5927184;39;20053;-70
2021/07/24 03:33:57;;;;;;;6.95;4.85;;;14.40;93.70;;;;;;5925611;39;20335;-71
2021/07/24 03:38:03;;;;;;;10.52;5.18;;;14.40;93.60;;;;;;5926142;39;20068;-70
2021/07/24 03:42:05;;;;;;;8.80;5.32;;;14.40;93.90;;;;;;5925079;39;20039;-71
2021/07/24 03:46:18;;;;;;;10.73;6.63;;;14.30;93.90;;;;;;5926764;39;20056;-71
2021/07/24 03:50:20;;;;;;;12.80;7.10;;;14.30;94.30;;;;;;5928432;39;20039;-71
2021/07/24 03:54:22;;;;;;;10.95;6.50;;;14.30;94.30;;;;;;5941396;39;20856;-72
2021/07/24 03:58:24;;;;;;;9.20;5.80;;;14.30;94.20;;;;;;5933217;39;20719;-71
2021/07/24 04:02:27;;;;;;;8.90;5.60;;;14.30;94.20;;;;;;5929721;39;20498;-71
2021/07/24 04:06:29;;;;;;;11.50;6.82;;;14.30;94.30;;;;;;5927573;39;20890;-71
2021/07/24 04:10:34;;;;;;;10.25;6.78;;;14.30;94.40;;;;;;5928519;39;20056;-71
2021/07/24 04:14:36;;;;;;;11.13;7.40;;;14.40;94.80;;;;;;5928481;39;20145;-71
2021/07/24 04:18:38;;;;;;;;;;;14.40;94.80;;;;;;5932845;39;20060;-71
2021/07/24 04:22:40;;;;;;;10.20;7.27;;;14.50;95.40;;;;;;5928142;39;19948;-72
2021/07/24 04:26:41;;;;;;;11.25;6.30;;;14.60;94.70;;;;;;5940840;39;20057;-71
2021/07/24 04:30:43;;;;;;;12.45;6.72;;;14.70;94.60;;;;;;5931658;39;20093;-71
2021/07/24 04:34:45;;;;;;;9.57;6.88;;;14.80;94.60;;;;;;5921397;39;20335;-72
2021/07/24 04:38:47;;;;;;;10.20;6.95;;;14.80;94.70;;;;;;5931081;39;20167;-72
2021/07/24 04:42:49;;;;;;;11.60;7.60;;;14.90;94.90;;;;;;5937131;39;20040;-72
2021/07/24 04:46:51;;;;;;;12.63;8.27;;;15.10;94.80;;;;;;5935028;39;20051;-72
2021/07/24 04:50:54;;;;;;;;;;;15.20;94.80;;;;;;5931777;39;20059;-72
2021/07/24 04:54:58;;;;;;;12.98;8.20;;;15.30;95.50;;;;;;5929240;39;19950;-71
2021/07/24 04:59:01;;;;;;;12.15;8.23;;;15.40;95.20;;;;;;5936382;39;20064;-72
2021/07/24 05:03:04;;;;;;;16.58;8.85;;;15.60;95.30;;;;;;5939432;39;20349;-71
2021/07/24 05:07:06;;;;;;;15.52;9.30;;;15.80;95.60;;;;;;5930305;39;20162;-72
2021/07/24 05:11:08;;;;;;;13.75;9.48;;;16.10;95.60;;;;;;5931038;39;20088;-72
2021/07/24 05:15:10;;;;;;;17.55;9.88;;;16.30;95.80;;;;;;5931829;39;20442;-71
2021/07/24 05:19:12;;;;;;;16.25;9.55;;;16.60;95.90;;;;;;5930678;39;20055;-72
2021/07/24 05:23:14;;;;;;;16.00;9.88;;;16.70;96.20;;;;;;5928400;39;20048;-72
2021/07/24 05:27:16;;;;;;;18.38;10.60;;;16.70;96.10;;;;;;5930300;39;20324;-72
2021/07/24 05:31:20;;;;;;;14.95;8.88;;;16.80;96.30;;;;;;5933286;39;20051;-71
2021/07/24 05:35:22;;;;;;;13.43;8.32;;;16.90;96.20;;;;;;5939012;39;20052;-71
2021/07/24 05:39:24;;;;;;;;;;;16.90;96.00;;;;;;5927043;39;20044;-72
2021/07/24 05:43:27;;;;;;;10.03;7.37;;;17.00;98.40;;;;;;5930262;39;20247;-72
2021/07/24 05:47:32;;;;;;;12.23;8.05;;;17.00;96.40;;;;;;5933362;39;22077;-72
2021/07/24 05:51:35;;;;;;;15.98;8.63;;;17.10;96.60;;;;;;5933349;39;20312;-72
2021/07/24 05:55:38;;;;;;;11.23;7.82;;;17.10;96.70;;;;;;5927950;39;21367;-73
2021/07/24 05:59:40;;;;;;;10.98;7.68;;;17.10;96.70;;;;;;5941245;39;20072;-72
2021/07/24 06:03:42;;;;;;;11.38;6.97;;;17.30;96.50;;;;;;5931652;39;20051;-72
2021/07/24 06:07:44;;;;;;;;;;;17.30;96.70;;;;;;5933472;39;20044;-71
2021/07/24 06:11:46;;;;;;;11.07;6.47;;;17.40;98.30;;;;;;5934000;39;19948;-72
2021/07/24 06:15:56;;;;;;;10.73;6.75;;;17.50;96.50;;;;;;5930849;39;20915;-72
2021/07/24 06:19:58;;;;;;;9.30;6.78;;;17.60;96.60;;;;;;5931127;39;20476;-71
2021/07/24 06:24:00;;;;;;;10.35;6.20;;;17.80;96.40;;;;;;5929619;39;20068;-71
2021/07/24 06:28:02;;;;;;;7.63;5.40;;;17.90;96.00;;;;;;5924592;39;20055;-71
2021/07/24 06:32:04;;;;;;;;;;;18.00;96.10;;;;;;5931293;39;20079;-71
2021/07/24 06:36:06;;;;;;;9.93;5.80;;;18.10;96.80;;;;;;5928124;39;19932;-71
2021/07/24 06:40:09;;;;;;;10.68;5.72;;;18.20;95.80;;;;;;5936568;39;20056;-71
2021/07/24 06:44:10;;;;;;;8.32;5.38;;;18.30;95.90;;;;;;5940422;39;20048;-71
2021/07/24 06:48:12;;;;;;;10.60;5.80;;;18.40;95.70;;;;;;5927718;39;20032;-71
2021/07/24 06:52:34;;;;;;;11.70;6.18;;;18.60;95.60;;;;;;5927661;39;20447;-71
2021/07/24 06:56:36;;;;;;;;;;;18.80;95.30;;;;;;5933127;39;20056;-71
2021/07/24 07:00:38;;;;;;;10.10;5.15;;;19.00;95.70;;;;;;5934549;39;19948;-71
2021/07/24 07:04:40;;;;;;;8.88;5.03;;;19.10;95.20;;;;;;5929380;39;20059;-71
2021/07/24 07:08:42;;;;;;;7.72;4.82;;;19.20;95.10;;;;;;5927997;39;20512;-71
2021/07/24 07:12:43;;;;;;;;;;;19.20;94.90;;;;;;5932882;39;20072;-70
2021/07/24 07:16:45;;;;;;;8.02;4.90;;;19.30;95.70;;;;;;5939715;39;19940;-71
2021/07/24 07:20:50;;;;;;;9.20;5.10;;;19.50;94.80;;;;;;5929706;39;20232;-71
2021/07/24 07:24:51;;;;;;;7.57;4.43;;;19.70;94.70;;;;;;5927501;39;20122;-71
2021/07/24 07:28:54;;;;;;;13.50;5.05;;;19.80;94.60;;;;;;5932781;39;20040;-71
2021/07/24 07:32:56;;;;;;;6.65;4.43;;;19.90;94.50;;;;;;5927651;39;20080;-72
2021/07/24 07:36:58;;;;;;;;;;;20.00;94.30;;;;;;5933124;39;20795;-72
2021/07/24 07:41:00;;;;;;;7.93;4.07;;;19.80;94.20;;;;;;5934290;39;19946;-72
2021/07/24 07:45:02;;;;;;;9.02;4.70;;;20.00;94.30;;;;;;5942069;39;20068;-72
2021/07/24 07:49:03;;;;;;;;;;;20.10;94.10;;;;;;5935571;39;20060;-72
2021/07/24 07:53:05;;;;;;;8.65;4.47;;;20.10;93.80;;;;;;5934376;39;19959;-72
2021/07/24 07:57:07;;;;;;;8.48;4.05;;;20.20;93.90;;;;;;5936401;39;20068;-72
2021/07/24 08:01:11;;;;;;;8.15;4.32;;;20.20;93.90;;;;;;5936740;39;20676;-72
2021/07/24 08:05:14;;;;;;;7.15;4.30;;;20.30;93.60;;;;;;5937245;39;20051;-72
2021/07/24 08:09:16;;;;;;;;;;;20.50;93.60;;;;;;5938217;39;20066;-72
2021/07/24 08:13:18;;;;;;;7.78;4.55;;;20.60;92.50;;;;;;5937566;39;20001;-72
2021/07/24 08:17:21;;;;;;;9.75;4.68;;;20.80;93.30;;;;;;5941206;39;20054;-72
2021/07/24 08:21:24;;;;;;;10.85;5.03;;;;;;;;;;5945664;39;20060;-72
2021/07/24 08:25:26;;;;;;;9.07;5.00;;;21.30;98.20;;;;;;5933025;39;20150;-73
2021/07/24 08:29:27;;;;;;;;;;;21.20;92.80;;;;;;5942348;39;20052;-72
2021/07/24 08:33:29;;;;;;;7.78;4.35;;;21.20;91.90;;;;;;5945132;39;19942;-73
2021/07/24 08:37:34;;;;;;;8.15;4.75;;;21.20;92.70;;;;;;5946363;39;20393;-72
2021/07/24 08:41:41;;;;;;;9.75;5.30;;;21.40;92.70;;;;;;5945366;39;20104;-72
2021/07/24 08:45:43;;;;;;;8.40;4.65;;;21.50;92.40;;;;;;5945931;39;20342;-72
2021/07/24 08:49:45;;;;;;;8.65;4.32;;;21.50;92.10;;;;;;5946493;39;20059;-72
2021/07/24 08:53:46;;;;;;;;;;;21.50;92.40;;;;;;5948255;39;20537;-72
2021/07/24 08:57:51;;;;;;;9.93;5.68;;;21.60;90.60;;;;;;5947020;39;19978;-72
2021/07/24 09:01:55;;;;;;;10.25;5.55;;;21.60;91.60;;;;;;5948462;39;20043;-72
2021/07/24 09:05:57;;;;;;;8.85;4.90;;;21.70;91.80;;;;;;5946746;39;20462;-73
2021/07/24 09:10:00;;;;;;;11.30;5.38;;;22.00;92.00;;;;;;5948309;39;20111;-72
2021/07/24 09:14:02;;;;;;;9.27;5.35;;;22.00;91.40;;;;;;5946631;39;20367;-73
2021/07/24 09:18:04;;;;;;;9.45;5.25;;;22.20;91.10;;;;;;5946843;39;20415;-72
2021/07/24 09:22:23;;;;;;;;;;;22.20;90.80;;;;;;5946614;39;20106;-73
2021/07/24 09:26:33;;;;;;;8.52;4.85;;;22.30;89.30;;;;;;5944622;39;19944;-72
2021/07/24 09:30:35;;;;;;;9.77;5.40;;;22.50;90.90;;;;;;5946912;39;20040;-72
2021/07/24 09:34:40;;;;;;;8.63;4.97;;;22.60;90.60;;;;;;5946027;39;20102;-72
2021/07/24 09:38:42;;;;;;;8.55;3.97;;;22.80;90.50;;;;;;5945496;39;20183;-71
2021/07/24 09:42:44;;;;;;;7.88;4.03;;;22.50;90.30;;;;;;5943734;39;20361;-72
2021/07/24 09:46:55;;;;;;;10.05;4.10;;;22.80;89.10;;;;;;5943244;39;20036;-72
2021/07/24 09:50:57;;;;;;;12.18;4.68;;;22.90;88.40;;;;;;5941687;39;20471;-72
2021/07/24 09:55:22;;;;;;;7.57;4.07;;;23.10;87.40;;;;;;5944663;39;20315;-72
2021/07/24 09:59:29;;;;;;;7.80;3.80;;;23.10;84.60;;;;;;5943526;39;20176;-73
2021/07/24 10:03:32;;;;;;;7.90;3.88;;;23.20;86.20;;;;;;5944715;39;20070;-72
2021/07/24 10:07:34;;;;;;;5.80;3.97;;;23.30;85.30;;;;;;5944388;39;20052;-72
2021/07/24 10:11:36;;;;;;;8.52;3.92;;;23.40;84.50;;;;;;5945289;39;20150;-73
2021/07/24 10:15:39;;;;;;;5.97;4.03;;;23.70;84.20;;;;;;5945829;39;20060;-72
2021/07/24 10:19:43;;;;;;;8.32;3.67;;;23.60;82.40;;;;;;5946066;39;20060;-73
2021/07/24 10:23:46;;;;;;;7.38;3.75;;;23.60;81.60;;;;;;5947840;39;20321;-73
2021/07/24 10:27:51;;;;;;;6.57;3.33;;;23.70;82.10;;;;;;5946111;39;20048;-73
2021/07/24 10:32:07;;;;;;;6.00;3.35;;;23.70;81.50;;;;;;5947341;39;20453;-73
2021/07/24 10:36:13;;;;;;;7.00;3.05;;;23.90;76.80;;;;;;5948369;39;20133;-72
2021/07/24 10:40:15;;;;;;;6.95;3.42;;;24.00;79.20;;;;;;5953276;39;20494;-72
2021/07/24 10:44:38;;;;;;;6.25;3.35;;;23.90;79.10;;;;;;5940421;39;20088;-73
2021/07/24 10:48:46;;;;;;;8.98;3.17;;;24.00;74.70;;;;;;5940275;39;20127;-73
2021/07/24 10:53:08;;;;;;;4.65;2.60;;;24.00;79.00;;;;;;5941974;39;20060;-72
2021/07/24 10:57:10;;;;;;;4.00;2.40;;;24.10;70.90;;;;;;5945418;39;20048;-73
2021/07/24 11:01:11;;;;;;;5.90;2.97;;;24.20;75.70;;;;;;5934781;39;20048;-66
2021/07/24 11:05:23;;;;;;;6.13;3.25;;;24.20;76.90;;;;;;5935685;39;20058;-68
2021/07/24 11:09:30;;;;;;;6.65;3.05;;;24.30;78.40;;;;;;5933866;39;20056;-68
2021/07/24 11:13:47;;;;;;;6.88;3.10;;;24.40;78.90;;;;;;5936221;39;20497;-69
2021/07/24 11:18:24;;;;;;;7.78;3.00;;;24.30;74.50;;;;;;5933209;39;20169;-68
2021/07/24 11:22:27;;;;;;;6.30;3.45;;;24.30;79.70;;;;;;5930834;39;20397;-69
2021/07/24 11:26:30;;;;;;;7.53;3.72;;;24.30;79.70;;;;;;5935639;39;20659;-68
2021/07/24 11:30:32;;;;;;;7.45;3.50;;;24.40;80.10;;;;;;5932924;39;20056;-67
2021/07/24 11:34:36;;;;;;;8.75;3.72;;;24.30;80.70;;;;;;5931184;39;20060;-68
2021/07/24 11:38:38;;;;;;;6.50;3.72;;;24.40;81.00;;;;;;5935411;39;20068;-69
2021/07/24 11:42:40;;;;;;;6.82;3.85;;;24.50;81.80;;;;;;5932426;39;20037;-68
2021/07/24 11:47:08;;;;;;;8.70;3.70;;;24.50;80.90;;;;;;5932127;39;20049;-68
2021/07/24 11:51:13;;;;;;;4.77;2.90;;;24.30;80.10;;;;;;5922772;39;20048;-69
2021/07/24 11:55:29;;;;;;;6.22;3.25;;;24.30;80.10;;;;;;5929126;39;20075;-68
2021/07/24 11:59:32;;;;;;;11.18;3.65;;;24.30;77.10;;;;;;5931927;39;20052;-68
2021/07/24 12:03:34;;;;;;;8.80;4.22;;;24.50;79.80;;;;;;5932161;39;21556;-68
2021/07/24 12:07:37;;;;;;;8.00;3.72;;;24.80;80.80;;;;;;5932116;39;20525;-67
2021/07/24 12:11:39;;;;;;;7.30;3.35;;;24.70;79.10;;;;;;5932254;39;20408;-68
2021/07/24 12:16:06;;;;;;;8.98;3.70;;;24.70;77.40;;;;;;5928768;39;20052;-68
2021/07/24 12:20:12;;;;;;;8.25;4.18;;;24.70;74.00;;;;;;5930569;39;20320;-65
2021/07/24 12:24:25;;;;;;;9.90;4.00;;;24.70;78.00;;;;;;5931602;39;20055;-65
2021/07/24 12:28:30;;;;;;;6.75;3.55;;;24.80;75.60;;;;;;5929057;39;20519;-67
2021/07/24 12:32:41;;;;;;;8.38;3.90;;;24.70;75.30;;;;;;5933421;39;20089;-66
2021/07/24 12:36:50;;;;;;;5.72;3.65;;;24.60;72.60;;;;;;5928608;39;20146;-67
2021/07/24 12:41:03;;;;;;;6.10;3.38;;;24.60;74.80;;;;;;5931042;39;20336;-67
2021/07/24 12:45:06;;;;;;;9.02;4.95;;;24.60;71.60;;;;;;5935425;39;20099;-69
2021/07/24 12:49:08;;;;;;;6.97;4.90;;;24.50;75.70;;;;;;5935381;39;20052;-69
2021/07/24 12:53:18;;;;;;;9.35;5.07;;;24.60;76.50;;;;;;5933181;39;20048;-68
2021/07/24 12:57:20;;;;;;;9.32;5.28;;;24.60;76.10;;;;;;5937379;39;20071;-69
2021/07/24 13:01:23;;;;;;;13.13;5.32;;;24.70;76.60;;;;;;5935967;39;20063;-69
2021/07/24 13:05:25;;;;;;;7.53;5.05;;;24.80;77.30;;;;;;5929725;39;20346;-69
2021/07/24 13:09:28;;;;;;;11.27;5.10;;;24.80;77.40;;;;;;5930498;39;20032;-68
2021/07/24 13:13:30;;;;;;;8.73;5.25;;;25.00;78.00;;;;;;5932625;39;20088;-69
2021/07/24 13:17:32;;;;;;;9.32;5.72;;;25.00;77.20;;;;;;5934206;39;20114;-69
2021/07/24 13:21:34;;;;;;;6.40;4.20;;;25.00;77.40;;;;;;5926429;39;20059;-69
2021/07/24 13:29:38;;;;;;;7.97;3.88;;;25.10;78.40;;;;;;5936532;39;20036;-67
2021/07/24 13:33:39;;;;;;;6.82;3.75;;;25.00;77.90;;;;;;5934455;39;20481;-68
2021/07/24 13:37:42;;;;;;;6.72;3.55;;;24.80;78.50;;;;;;5937358;39;20071;-68
2021/07/24 13:41:44;;;;;;;10.60;4.05;;;24.50;78.50;;;;;;5937209;39;20068;-69
2021/07/24 13:45:46;;;;;;;7.68;3.78;;;24.40;79.10;;;;;;5935277;39;20217;-69
2021/07/24 13:49:48;;;;;;;8.07;4.38;;;24.50;79.40;;;;;;5934480;39;20066;-69
2021/07/24 13:53:49;;;;;;;6.05;3.60;;;24.60;78.80;;;;;;5932107;39;20088;-69
2021/07/24 13:57:51;;;;;;;8.18;4.03;;;24.50;79.10;;;;;;5931744;39;20139;-68
2021/07/24 14:01:53;;;;;;;7.63;3.47;;;24.00;78.90;;;;;;5935320;39;20044;-69
2021/07/24 14:06:03;;;;;;;7.82;3.60;;;24.40;79.10;;;;;;5934205;39;20040;-67
2021/07/24 14:10:06;;;;;;;8.65;3.63;;;24.30;78.80;;;;;;5932372;39;20052;-68
2021/07/24 14:14:08;;;;;;;7.97;3.67;;;24.40;78.70;;;;;;5935578;39;20040;-67
2021/07/24 14:18:10;;;;;;;7.55;3.92;;;24.30;78.60;;;;;;5931763;39;20096;-68
2021/07/24 14:22:12;;;;;;;7.13;3.75;;;24.40;77.70;;;;;;5932154;39;20049;-66
2021/07/24 14:26:14;;;;;;;9.25;3.55;;;24.30;77.50;;;;;;5932778;39;20054;-66
2021/07/24 14:30:16;;;;;;;7.03;3.78;;;24.20;77.60;;;;;;5933017;39;20214;-67
2021/07/24 14:34:37;;;;;;;7.68;3.72;;;24.10;77.90;;;;;;5933536;39;20059;-67
2021/07/24 14:38:39;;;;;;;7.45;3.38;;;24.30;77.60;;;;;;5929058;39;20138;-67
2021/07/24 14:42:41;;;;;;;7.95;3.30;;;24.20;77.20;;;;;;5927703;39;20063;-65
2021/07/24 14:46:43;;;;;;;9.65;4.65;;;24.30;77.70;;;;;;5930594;39;20080;-66
2021/07/24 14:50:45;;;;;;;8.10;3.85;;;24.30;77.00;;;;;;5929405;39;20072;-66
2021/07/24 14:54:47;;;;;;;8.05;4.68;;;24.30;77.50;;;;;;5937738;39;20045;-66
2021/07/24 14:58:49;;;;;;;9.32;4.72;;;24.20;77.30;;;;;;5930734;39;20048;-65
2021/07/24 15:02:55;;;;;;;9.65;5.38;;;24.20;77.10;;;;;;5932661;39;20058;-67
2021/07/24 15:06:57;;;;;;;8.63;4.95;;;24.20;77.00;;;;;;5932744;39;20044;-66
2021/07/24 15:11:04;;;;;;;10.60;5.85;;;24.20;77.70;;;;;;5934672;39;20417;-66
2021/07/24 15:15:06;;;;;;;8.98;5.93;;;24.10;77.40;;;;;;5933614;39;20052;-67
2021/07/24 15:19:08;;;;;;;9.82;6.60;;;24.10;78.00;;;;;;5931986;39;20309;-66
2021/07/24 15:23:10;;;;;;;12.13;6.25;;;23.90;78.60;;;;;;5933030;39;20056;-66
2021/07/24 15:27:11;;;;;;;11.05;6.00;;;23.80;79.70;;;;;;5928105;39;20765;-68
2021/07/24 15:31:13;;;;;;;13.20;6.32;;;23.70;80.60;;;;;;5932489;39;20485;-68
2021/07/24 15:35:15;;;;;;;8.82;5.70;;;23.70;81.00;;;;;;5936646;39;20056;-67
2021/07/24 15:39:17;;;;;;;10.68;5.57;;;23.70;81.50;;;;;;5933386;39;20050;-69
2021/07/24 15:43:19;;;;;;;37.40;18.02;;;23.80;81.90;;;;;;5932961;39;20059;-69
2021/07/24 15:47:21;;;;;;;18.02;9.27;;;23.90;81.90;;;;;;5932059;39;20056;-67
2021/07/24 15:51:23;;;;;;;9.18;5.28;;;24.00;80.80;;;;;;5931758;39;20045;-68
2021/07/24 15:55:25;;;;;;;8.02;6.00;;;24.00;81.10;;;;;;5932978;39;20062;-69
2021/07/24 15:59:26;;;;;;;6.93;4.80;;;23.90;81.60;;;;;;5933395;39;20517;-68
2021/07/24 16:03:28;;;;;;;10.13;6.07;;;23.90;81.50;;;;;;5935556;39;20084;-68
2021/07/24 16:07:30;;;;;;;10.38;6.15;;;23.90;81.90;;;;;;5933582;39;20157;-69
2021/07/24 16:11:32;;;;;;;11.45;5.78;;;23.90;82.20;;;;;;5934432;39;20077;-68
2021/07/24 16:15:38;;;;;;;10.68;6.38;;;24.00;82.30;;;;;;5936265;39;20106;-68
2021/07/24 16:19:40;;;;;;;8.45;6.22;;;23.90;82.80;;;;;;5938546;39;20069;-69
2021/07/24 16:23:42;;;;;;;11.52;6.28;;;24.00;83.00;;;;;;5934886;39;20290;-68
2021/07/24 16:27:44;;;;;;;10.02;6.57;;;24.00;83.10;;;;;;5936289;39;20217;-68
2021/07/24 16:31:46;;;;;;;9.85;6.47;;;24.10;82.90;;;;;;5934060;39;20084;-69
2021/07/24 16:35:48;;;;;;;10.48;5.97;;;24.10;83.30;;;;;;5932079;39;20249;-67
2021/07/24 16:39:50;;;;;;;11.07;6.32;;;24.20;83.10;;;;;;5934361;39;20053;-68
2021/07/24 16:43:52;;;;;;;9.05;5.85;;;24.20;83.40;;;;;;5934632;39;20056;-67
2021/07/24 16:47:54;;;;;;;9.40;6.30;;;24.20;83.80;;;;;;5930807;39;20409;-67
2021/07/24 16:51:56;;;;;;;12.15;6.95;;;24.10;84.30;;;;;;5932856;39;20052;-69
2021/07/24 16:55:59;;;;;;;13.05;7.85;;;24.00;85.10;;;;;;5934305;39;20088;-69
2021/07/24 17:00:01;;;;;;;13.40;7.55;;;24.10;85.60;;;;;;5935774;39;20490;-68
2021/07/24 17:04:02;;;;;;;11.30;6.90;;;24.10;85.90;;;;;;5935639;39;20059;-68
2021/07/24 17:08:05;;;;;;;9.02;6.72;;;24.00;86.10;;;;;;5937559;39;20054;-68
2021/07/24 17:12:07;;;;;;;8.98;6.82;;;24.10;86.70;;;;;;5935265;39;20453;-69
2021/07/24 17:16:11;;;;;;;14.90;7.90;;;24.10;86.70;;;;;;5936521;39;20074;-67
2021/07/24 17:20:12;;;;;;;11.70;7.68;;;24.20;85.40;;;;;;5935337;39;20053;-65
2021/07/24 17:24:14;;;;;;;11.73;7.05;;;24.20;83.70;;;;;;5935277;39;20087;-67
2021/07/24 17:28:16;;;;;;;12.18;7.35;;;24.20;83.30;;;;;;5934021;39;20044;-68
2021/07/24 17:32:19;;;;;;;12.77;6.60;;;24.30;83.30;;;;;;5938034;39;20084;-68
2021/07/24 17:36:21;;;;;;;8.63;6.53;;;24.30;83.20;;;;;;5927794;39;20396;-68
2021/07/24 17:40:23;;;;;;;12.20;7.10;;;24.30;83.10;;;;;;5936352;39;20274;-68
2021/07/24 17:44:25;;;;;;;9.80;6.18;;;24.30;83.00;;;;;;5934901;39;20047;-69
2021/07/24 17:48:27;;;;;;;12.07;6.85;;;24.20;83.30;;;;;;5934216;39;20619;-69
2021/07/24 17:52:29;;;;;;;10.52;5.93;;;24.20;83.50;;;;;;5932447;39;20528;-68
2021/07/24 17:56:31;;;;;;;9.63;6.35;;;24.30;83.50;;;;;;5934006;39;20099;-68
2021/07/24 18:00:33;;;;;;;10.05;6.72;;;24.20;83.60;;;;;;5934862;39;20137;-69
2021/07/24 18:04:35;;;;;;;10.60;7.18;;;24.00;83.60;;;;;;5935860;39;20060;-69
2021/07/24 18:08:39;;;;;;;9.00;6.25;;;24.00;84.00;;;;;;5934925;39;20407;-69
2021/07/24 18:12:40;;;;;;;13.38;7.22;;;23.90;84.20;;;;;;5933538;39;20057;-67
2021/07/24 18:16:43;;;;;;;12.10;6.85;;;23.90;84.40;;;;;;5936005;39;20064;-67
2021/07/24 18:20:44;;;;;;;9.25;6.40;;;23.80;84.60;;;;;;5933799;39;20110;-69
2021/07/24 18:24:46;;;;;;;10.00;5.93;;;23.70;84.70;;;;;;5931843;39;20364;-68
2021/07/24 18:28:50;;;;;;;12.75;6.50;;;23.70;85.00;;;;;;5934420;39;20111;-69
2021/07/24 18:32:52;;;;;;;9.50;6.47;;;23.50;85.00;;;;;;5933851;39;20048;-68
2021/07/24 18:36:54;;;;;;;15.00;6.20;;;23.50;85.10;;;;;;5933901;39;20056;-68
2021/07/24 18:40:56;;;;;;;10.98;6.18;;;23.50;85.40;;;;;;5933496;39;20129;-67
2021/07/24 18:44:59;;;;;;;10.18;6.20;;;23.30;85.70;;;;;;5929932;39;20482;-68
2021/07/24 18:49:01;;;;;;;10.50;6.20;;;23.30;86.00;;;;;;5935624;39;20044;-68
2021/07/24 18:53:04;;;;;;;11.88;6.22;;;23.20;86.30;;;;;;5938960;39;20080;-77
2021/07/24 18:57:05;;;;;;;9.88;6.20;;;23.10;86.50;;;;;;5952012;39;20218;-77
2021/07/24 19:01:14;;;;;;;9.05;6.07;;;23.10;86.80;;;;;;5943641;39;20091;-78
2021/07/24 19:05:17;;;;;;;13.65;5.90;;;23.00;87.20;;;;;;5948168;39;20063;-76
2021/07/24 19:09:19;;;;;;;9.18;6.28;;;22.90;87.40;;;;;;5931374;39;20067;-76
2021/07/24 19:13:25;;;;;;;10.73;5.97;;;22.90;87.60;;;;;;5940331;39;20145;-77
2021/07/24 19:17:27;;;;;;;12.60;6.85;;;23.60;88.00;;;;;;5940968;39;20076;-75
2021/07/24 19:21:29;;;;;;;11.82;6.20;;;22.80;87.90;;;;;;5936056;39;20059;-76
2021/07/24 19:25:32;;;;;;;10.98;5.75;;;22.70;87.80;;;;;;5938989;39;20109;-76
2021/07/24 19:29:34;;;;;;;14.05;5.90;;;22.60;87.90;;;;;;5938005;39;20048;-76
2021/07/24 19:33:36;;;;;;;12.35;5.88;;;22.50;88.20;;;;;;5946838;39;20059;-76
2021/07/24 19:37:38;;;;;;;11.40;5.88;;;22.40;88.40;;;;;;5940445;39;20134;-76
2021/07/24 19:41:42;;;;;;;10.60;5.30;;;22.30;88.20;;;;;;5937045;39;20688;-77
2021/07/24 19:45:44;;;;;;;11.30;6.18;;;22.30;89.00;;;;;;5941377;39;20056;-77
2021/07/24 19:49:49;;;;;;;9.45;5.55;;;22.30;89.10;;;;;;5940628;39;20069;-77
2021/07/24 19:53:52;;;;;;;12.40;5.80;;;22.20;89.60;;;;;;5939665;39;20053;-77
2021/07/24 19:57:54;;;;;;;10.07;5.68;;;22.10;89.50;;;;;;5942636;39;20040;-77
2021/07/24 20:01:57;;;;;;;13.30;6.03;;;22.10;90.00;;;;;;5940120;39;20036;-77
2021/07/24 20:05:59;;;;;;;11.38;5.97;;;22.00;90.00;;;;;;5941732;39;20048;-77
2021/07/24 20:10:02;;;;;;;9.10;5.88;;;22.00;90.20;;;;;;5943235;39;20666;-76
2021/07/24 20:14:04;;;;;;;10.30;5.63;;;22.00;90.10;;;;;;5942978;39;20458;-79
2021/07/24 20:18:06;;;;;;;11.55;6.10;;;21.90;90.40;;;;;;5939670;39;20079;-78
2021/07/24 20:22:08;;;;;;;9.90;5.35;;;21.90;90.40;;;;;;5940666;39;20044;-76
2021/07/24 20:26:10;;;;;;;9.82;5.13;;;21.80;90.30;;;;;;5940332;39;20151;-77
2021/07/24 20:30:12;;;;;;;13.93;6.30;;;21.80;90.10;;;;;;5938347;39;20056;-77
2021/07/24 20:34:15;;;;;;;9.40;5.72;;;21.80;90.40;;;;;;5940391;39;20100;-76
2021/07/24 20:38:17;;;;;;;9.25;5.45;;;21.70;90.40;;;;;;5943197;39;20060;-77
2021/07/24 20:42:19;;;;;;;;;;;21.70;90.50;;;;;;5942523;39;20055;-77
2021/07/24 20:46:21;;;;;;;9.82;5.90;;;21.60;91.20;;;;;;5938934;39;19944;-78
2021/07/24 20:50:23;;;;;;;13.90;5.30;;;21.60;90.50;;;;;;5939951;39;20297;-75
2021/07/24 20:54:25;;;;;;;13.30;5.70;;;21.50;90.70;;;;;;5935643;39;20154;-73
2021/07/24 20:58:28;;;;;;;8.35;5.28;;;21.50;90.90;;;;;;5933860;39;20087;-72
2021/07/24 21:02:30;;;;;;;11.73;5.57;;;21.50;91.00;;;;;;5946658;39;20517;-72
2021/07/24 21:06:32;;;;;;;9.55;6.05;;;21.50;90.90;;;;;;5949383;39;20040;-75
2021/07/24 21:10:33;;;;;;;;;;;21.70;91.00;;;;;;5939251;39;20052;-75
2021/07/24 21:14:54;;;;;;;9.38;5.68;;;21.40;92.60;;;;;;5939512;39;20223;-73
2021/07/24 21:18:56;;;;;;;;;;;21.30;91.30;;;;;;5939843;39;20036;-75